HE26 weather

Wadi Abu Shihat
Red Sea Governorate, Egypt

Public forecast

Using degrees Celsius for public forecast. Weather courtesy of forecast.io.

Closest aviation weather report (METAR) to Wadi Abu Shihat

Closest report is Hurghada International Airport, 52.0 nm (96.4 km) NE. Retrieved 2020/02/19 16:00 UTC (24 minutes ago):

HEGN 191600Z 33013KT 9999 SCT020 19/07 Q1016 NOSIG

Closest aviation forecast (TAF) to Wadi Abu Shihat

Closest forecast is Hurghada International Airport, 52.0 nm (96.4 km) NE. Retrieved 2020/02/19 12:03 UTC (4 hours ago):

TAF HEGN 191100Z 1912/2018 33015G25KT 9999 SCT020 PROB30 TEMPO 1912/1918 4000 SA